8XS9 weather

Rust Field
Waring, Texas, United States

Public forecast

Using degrees Fahrenheit for public forecast. Weather courtesy of forecast.io.

METAR (pilot weather report)

Closest report is Boerne Stage Field, 14.9 nm (27.5 km) SSE. Retrieved 2019/09/22 23:35 UTC (8 minutes ago):

K5C1 222335Z AUTO 18003KT 10SM CLR 32/16 A2997 RMK AO1

TAF (pilot weather forecast)

Closest forecast is San Antonio International Airport, 30.4 nm (56.4 km) SSE. Retrieved 2019/09/22 18:42 UTC (5 hours ago):

TAF KSAT 221739Z 2218/2324 16009KT P6SM BKN035 FM222000 17012KT P6SM SCT050 FM230200 14012KT P6SM FEW060 FM230600 14007KT P6SM BKN012 TEMPO 2311/2314 BKN009 FM231600 16008KT P6SM SCT040